createdAt,value
2023-04-26T00:04:05.544Z,100315.85
2023-04-26T00:09:28.084Z,100323.05
2023-04-26T00:14:50.963Z,100328.54
2023-04-26T00:20:14.445Z,100317.97
2023-04-26T00:25:36.834Z,100319.34
2023-04-26T00:30:59.074Z,100326.22
2023-04-26T00:36:21.477Z,100325.92
2023-04-26T00:41:43.784Z,100314.37
2023-04-26T00:47:07.077Z,100314.45
2023-04-26T00:52:29.649Z,100319.83
2023-04-26T00:57:52.328Z,100325.59
2023-04-26T01:03:14.899Z,100331.23
2023-04-26T01:08:37.488Z,100335.97
2023-04-26T01:14:00.789Z,100334.01
2023-04-26T01:19:26.974Z,100342.25
2023-04-26T01:24:50.325Z,100329.35
2023-04-26T01:30:14.250Z,100323.89
2023-04-26T01:35:36.540Z,100336.70
2023-04-26T01:40:58.766Z,100339.23
2023-04-26T01:46:21.249Z,100340.50
2023-04-26T01:51:44.000Z,100338.00
2023-04-26T01:57:06.370Z,100335.06
2023-04-26T02:02:29.908Z,100334.44
2023-04-26T02:07:52.357Z,100342.02
2023-04-26T02:13:15.019Z,100338.73
2023-04-26T02:18:37.501Z,100346.22
2023-04-26T02:23:59.722Z,100337.17
2023-04-26T02:29:32.623Z,100337.31
2023-04-26T02:34:46.622Z,100338.91
2023-04-26T02:40:12.314Z,100341.23
2023-04-26T02:45:34.699Z,100328.83
2023-04-26T02:50:57.489Z,100339.52
2023-04-26T02:56:20.350Z,100330.98
2023-04-26T03:01:42.626Z,100338.68
2023-04-26T03:07:04.902Z,100333.54
2023-04-26T03:12:27.231Z,100328.75
2023-04-26T03:17:50.093Z,100332.34
2023-04-26T03:23:12.393Z,100327.47
2023-04-26T03:28:34.737Z,100339.34
2023-04-26T03:33:56.971Z,100338.77
2023-04-26T03:39:19.311Z,100346.78
2023-04-26T03:44:41.627Z,100348.50
2023-04-26T03:50:04.039Z,100359.28
2023-04-26T03:55:26.717Z,100371.75
2023-04-26T04:00:52.087Z,100368.05
2023-04-26T04:06:14.594Z,100370.47
2023-04-26T04:11:36.826Z,100376.06
2023-04-26T04:16:59.884Z,100371.27
2023-04-26T04:22:22.225Z,100375.16
2023-04-26T04:27:47.184Z,100371.92
2023-04-26T04:33:09.724Z,100376.80
2023-04-26T04:38:32.121Z,100378.56
2023-04-26T04:43:55.256Z,100393.02
2023-04-26T04:49:19.643Z,100390.05
2023-04-26T04:54:41.884Z,100396.24
2023-04-26T05:00:06.217Z,100408.52
2023-04-26T05:05:29.436Z,100399.80
2023-04-26T05:10:52.246Z,100398.30
2023-04-26T05:16:14.727Z,100419.93
2023-04-26T05:21:37.053Z,100415.64
2023-04-26T05:26:59.981Z,100420.47
2023-04-26T05:32:22.225Z,100433.33
2023-04-26T05:37:44.488Z,100434.22
2023-04-26T05:43:06.728Z,100439.59
2023-04-26T05:48:30.111Z,100437.08
2023-04-26T05:53:52.727Z,100440.19
2023-04-26T05:59:16.468Z,100436.09
2023-04-26T06:04:39.294Z,100452.55
2023-04-26T06:10:02.885Z,100446.47
2023-04-26T06:15:25.695Z,100453.45
2023-04-26T06:20:47.924Z,100453.30
2023-04-26T06:26:10.175Z,100450.73
2023-04-26T06:31:32.479Z,100438.64
2023-04-26T06:36:54.840Z,100434.08
2023-04-26T06:42:18.235Z,100460.52
2023-04-26T06:47:40.515Z,100436.67
2023-04-26T06:53:02.948Z,100437.95
2023-04-26T06:58:25.210Z,100438.27
2023-04-26T07:03:48.083Z,100426.55
2023-04-26T07:09:13.553Z,100435.81
2023-04-26T07:14:37.862Z,100446.58
2023-04-26T07:20:00.193Z,100447.23
2023-04-26T07:25:22.857Z,100442.21
2023-04-26T07:30:45.116Z,100453.02
2023-04-26T07:36:14.213Z,100443.31
2023-04-26T07:41:37.053Z,100441.95
2023-04-26T07:46:59.391Z,100450.81
2023-04-26T07:52:22.704Z,100454.48
2023-04-26T07:57:45.331Z,100465.55
2023-04-26T08:03:08.711Z,100453.16
2023-04-26T08:08:33.959Z,100466.35
2023-04-26T08:13:56.601Z,100469.15
2023-04-26T08:19:18.915Z,100477.26
2023-04-26T08:24:41.205Z,100473.06
2023-04-26T08:30:03.527Z,100476.98
2023-04-26T08:35:26.014Z,100481.34
2023-04-26T08:40:48.950Z,100489.42
2023-04-26T08:46:13.589Z,100478.41
2023-04-26T08:51:37.521Z,100489.79
2023-04-26T08:57:02.362Z,100486.59
2023-04-26T09:02:27.715Z,100505.34
2023-04-26T09:07:53.635Z,100518.89
2023-04-26T09:13:15.971Z,100513.45
2023-04-26T09:18:39.304Z,100514.90
2023-04-26T09:24:20.724Z,100508.09
2023-04-26T09:29:43.061Z,100529.34
2023-04-26T09:35:05.281Z,100539.47
2023-04-26T09:40:34.105Z,100540.16
2023-04-26T09:46:15.476Z,100530.08
2023-04-26T09:51:37.895Z,100546.55
2023-04-26T09:57:07.534Z,100528.69
2023-04-26T10:02:36.035Z,100530.72
2023-04-26T10:07:58.480Z,100543.98
2023-04-26T10:13:22.426Z,100533.70
2023-04-26T10:18:45.886Z,100533.47
2023-04-26T10:24:09.328Z,100532.76
2023-04-26T10:29:33.416Z,100550.19
2023-04-26T10:35:14.599Z,100540.55
2023-04-26T10:40:46.675Z,100540.91
2023-04-26T10:46:12.568Z,100563.49
2023-04-26T10:51:35.755Z,100566.67
2023-04-26T10:57:01.645Z,100569.95
2023-04-26T11:02:24.079Z,100569.40
2023-04-26T11:07:58.483Z,100569.41
2023-04-26T11:13:21.675Z,100584.56
2023-04-26T11:18:46.420Z,100589.34
2023-04-26T11:24:14.621Z,100591.66
2023-04-26T11:29:40.351Z,100615.12
2023-04-26T11:35:02.739Z,100598.72
2023-04-26T11:40:27.300Z,100587.02
2023-04-26T11:45:51.318Z,100589.27
2023-04-26T11:51:19.073Z,100596.19
2023-04-26T11:56:41.327Z,100593.34
2023-04-26T12:02:06.374Z,100584.16
2023-04-26T12:07:30.860Z,100605.30
2023-04-26T12:12:57.935Z,100607.22
2023-04-26T12:18:25.285Z,100609.32
2023-04-26T12:23:51.024Z,100607.28
2023-04-26T12:29:13.845Z,100589.22
2023-04-26T12:34:36.592Z,100596.11
2023-04-26T12:39:59.029Z,100595.09
2023-04-26T12:45:21.503Z,100624.42
2023-04-26T12:50:44.588Z,100619.39
2023-04-26T12:56:07.164Z,100631.00
2023-04-26T13:01:32.273Z,100624.22
2023-04-26T13:06:55.076Z,100617.70
2023-04-26T13:12:17.659Z,100617.84
2023-04-26T13:17:43.386Z,100612.47
2023-04-26T13:23:06.043Z,100608.84
2023-04-26T13:28:28.849Z,100641.89
2023-04-26T13:33:51.679Z,100624.80
2023-04-26T13:39:14.386Z,100635.34
2023-04-26T13:44:37.709Z,100635.17
2023-04-26T13:50:00.452Z,100633.57
2023-04-26T13:55:26.618Z,100662.94
2023-04-26T14:00:49.912Z,100646.64
2023-04-26T14:06:14.057Z,100647.08
2023-04-26T14:11:36.503Z,100656.84
2023-04-26T14:16:58.918Z,100657.34
2023-04-26T14:22:21.318Z,100647.61
2023-04-26T14:27:44.019Z,100652.62
2023-04-26T14:33:06.587Z,100651.27
2023-04-26T14:38:29.623Z,100661.19
2023-04-26T14:43:55.123Z,100637.80
2023-04-26T14:49:17.620Z,100640.09
2023-04-26T14:54:41.876Z,100650.54
2023-04-26T15:00:11.726Z,100674.80
2023-04-26T15:05:34.151Z,100649.97
2023-04-26T15:10:56.946Z,100682.55
2023-04-26T15:16:23.195Z,100667.58
2023-04-26T15:21:45.744Z,100660.84
2023-04-26T15:27:09.374Z,100666.95
2023-04-26T15:32:32.482Z,100681.59
2023-04-26T15:37:56.520Z,100682.00
2023-04-26T15:43:19.800Z,100693.91
2023-04-26T15:48:43.049Z,100680.91
2023-04-26T15:54:05.576Z,100705.11
2023-04-26T15:59:28.796Z,100690.67
2023-04-26T16:04:51.271Z,100694.44
2023-04-26T16:10:15.177Z,100699.55
2023-04-26T16:15:38.065Z,100708.10
2023-04-26T16:21:03.094Z,100697.80
2023-04-26T16:26:26.044Z,100709.78
2023-04-26T16:31:49.232Z,100726.69
2023-04-26T16:37:11.977Z,100721.48
2023-04-26T16:42:37.349Z,100736.78
2023-04-26T16:48:00.842Z,100745.80
2023-04-26T16:53:23.444Z,100740.86
2023-04-26T16:58:47.956Z,100756.20
2023-04-26T17:04:13.338Z,100768.87
2023-04-26T17:09:38.699Z,100771.77
2023-04-26T17:15:04.450Z,100769.56
2023-04-26T17:20:26.392Z,100773.41
2023-04-26T17:25:49.700Z,100773.80
2023-04-26T17:31:12.982Z,100781.45
2023-04-26T17:36:35.608Z,100784.95
2023-04-26T17:41:58.626Z,100790.91
2023-04-26T17:47:22.254Z,100784.11
2023-04-26T17:52:46.179Z,100795.03
2023-04-26T17:58:08.985Z,100802.56
2023-04-26T18:03:32.052Z,100808.96
2023-04-26T18:08:54.595Z,100818.12
2023-04-26T18:14:17.064Z,100818.41
2023-04-26T18:19:39.547Z,100824.50
2023-04-26T18:25:01.952Z,100827.97
2023-04-26T18:30:25.239Z,100830.26
2023-04-26T18:35:47.852Z,100833.89
2023-04-26T18:41:10.083Z,100843.14
2023-04-26T18:46:32.491Z,100844.87
2023-04-26T18:51:54.764Z,100851.38
2023-04-26T18:57:18.633Z,100853.89
2023-04-26T19:02:41.445Z,100856.64
2023-04-26T19:08:06.677Z,100856.91
2023-04-26T19:13:29.807Z,100867.48
2023-04-26T19:18:52.513Z,100871.57
2023-04-26T19:24:14.835Z,100871.47
2023-04-26T19:29:37.234Z,100866.00
2023-04-26T19:34:59.598Z,100876.14
2023-04-26T19:40:22.535Z,100879.66
2023-04-26T19:45:44.844Z,100870.90
2023-04-26T19:51:07.308Z,100876.52
2023-04-26T19:56:29.610Z,100885.50
2023-04-26T20:01:53.787Z,100882.24
2023-04-26T20:07:15.809Z,100880.22
2023-04-26T20:12:39.534Z,100868.60
2023-04-26T20:18:02.491Z,100881.73
2023-04-26T20:23:25.149Z,100888.52
2023-04-26T20:28:47.914Z,100883.00
2023-04-26T20:34:10.626Z,100886.33
2023-04-26T20:39:34.280Z,100890.41
2023-04-26T20:44:57.935Z,100888.45
2023-04-26T20:50:21.625Z,100899.44
2023-04-26T20:55:44.069Z,100898.71
2023-04-26T21:01:12.931Z,100899.61
2023-04-26T21:06:35.223Z,100897.84
2023-04-26T21:11:57.560Z,100897.91
2023-04-26T21:17:20.447Z,100907.20
2023-04-26T21:22:42.767Z,100911.16
2023-04-26T21:28:05.025Z,100915.13
2023-04-26T21:33:27.480Z,100914.63
2023-04-26T21:38:49.766Z,100916.42
2023-04-26T21:44:12.457Z,100932.14
2023-04-26T21:49:35.466Z,100930.28
2023-04-26T21:54:57.874Z,100933.86
2023-04-26T22:00:21.480Z,100930.78
2023-04-26T22:05:44.892Z,100941.86
2023-04-26T22:11:07.788Z,100945.37
2023-04-26T22:16:30.145Z,100948.59
2023-04-26T22:21:54.381Z,100960.55
2023-04-26T22:27:16.765Z,100961.46
2023-04-26T22:32:39.123Z,100965.39
2023-04-26T22:38:01.653Z,100965.59
2023-04-26T22:43:24.271Z,100962.63
2023-04-26T22:48:46.640Z,100965.59
2023-04-26T22:54:08.863Z,100962.21
2023-04-26T22:59:32.756Z,100976.78
2023-04-26T23:04:55.080Z,100977.28
2023-04-26T23:10:18.747Z,100973.30
2023-04-26T23:15:42.233Z,100981.82
2023-04-26T23:21:04.479Z,100982.39
2023-04-26T23:26:26.735Z,100985.54
2023-04-26T23:31:49.044Z,100979.48
2023-04-26T23:37:11.531Z,100974.25
2023-04-26T23:42:33.770Z,100976.28
2023-04-26T23:47:56.084Z,100989.25
2023-04-26T23:53:18.416Z,100988.69
2023-04-26T23:58:40.735Z,100982.62
